createdAt,value
2022-12-23T00:01:04.157Z,12.10
2022-12-23T00:03:36.040Z,12.10
2022-12-23T00:06:09.971Z,12.20
2022-12-23T00:08:39.890Z,12.10
2022-12-23T00:11:12.776Z,12.10
2022-12-23T00:13:59.764Z,12.10
2022-12-23T00:16:28.349Z,12.10
2022-12-23T00:18:58.432Z,12.10
2022-12-23T00:21:26.934Z,12.10
2022-12-23T00:23:55.315Z,12.10
2022-12-23T00:26:25.223Z,12.10
2022-12-23T00:28:55.712Z,12.10
2022-12-23T00:31:24.093Z,12.10
2022-12-23T00:33:54.603Z,12.10
2022-12-23T00:36:27.950Z,12.10
2022-12-23T00:39:15.646Z,12.10
2022-12-23T00:42:02.888Z,12.10
2022-12-23T00:44:31.578Z,12.10
2022-12-23T00:46:59.869Z,12.10
2022-12-23T00:49:43.668Z,12.00
2022-12-23T00:52:15.984Z,12.00
2022-12-23T00:54:44.635Z,12.00
2022-12-23T00:57:13.062Z,12.00
2022-12-23T00:59:41.297Z,11.90
2022-12-23T01:02:30.188Z,11.90
2022-12-23T01:05:17.345Z,11.80
2022-12-23T01:07:47.414Z,11.80
2022-12-23T01:10:15.897Z,11.80
2022-12-23T01:12:44.176Z,11.70
2022-12-23T01:15:12.628Z,11.70
2022-12-23T01:17:40.843Z,11.70
2022-12-23T01:20:10.159Z,11.60
2022-12-23T01:22:38.823Z,11.60
2022-12-23T01:25:09.609Z,11.60
2022-12-23T01:27:38.081Z,11.60
2022-12-23T01:30:07.515Z,11.50
2022-12-23T01:32:37.140Z,11.50
2022-12-23T01:35:06.270Z,11.50
2022-12-23T01:37:34.805Z,11.50
2022-12-23T01:40:03.234Z,11.40
2022-12-23T01:42:45.671Z,11.40
2022-12-23T01:45:20.380Z,11.40
2022-12-23T01:47:52.596Z,11.30
2022-12-23T01:50:25.248Z,11.30
2022-12-23T01:53:06.925Z,11.30
2022-12-23T01:55:41.491Z,11.30
2022-12-23T01:58:15.746Z,11.20
2022-12-23T02:01:03.951Z,11.20
2022-12-23T02:03:44.977Z,11.20
2022-12-23T02:06:38.639Z,11.20
2022-12-23T02:09:17.505Z,11.10
2022-12-23T02:12:21.945Z,11.10
2022-12-23T02:15:28.517Z,11.10
2022-12-23T02:18:14.800Z,11.10
2022-12-23T02:21:27.870Z,11.00
2022-12-23T02:24:38.400Z,11.00
2022-12-23T02:27:29.339Z,10.90
2022-12-23T02:30:33.058Z,10.90
2022-12-23T02:33:32.340Z,10.90
2022-12-23T02:36:11.020Z,10.90
2022-12-23T02:38:47.971Z,10.80
2022-12-23T02:41:23.510Z,10.90
2022-12-23T02:43:58.006Z,10.80
2022-12-23T02:46:33.199Z,10.90
2022-12-23T02:49:08.905Z,10.90
2022-12-23T02:51:43.137Z,10.80
2022-12-23T02:54:15.124Z,10.90
2022-12-23T02:56:48.544Z,10.90
2022-12-23T02:59:20.571Z,10.80
2022-12-23T03:01:50.141Z,10.80
2022-12-23T03:04:21.963Z,10.90
2022-12-23T03:06:53.596Z,10.90
2022-12-23T03:09:32.042Z,10.90
2022-12-23T03:12:07.503Z,10.90
2022-12-23T03:15:08.555Z,11.00
2022-12-23T03:17:49.240Z,10.90
2022-12-23T03:20:27.936Z,10.90
2022-12-23T03:23:02.733Z,10.90
2022-12-23T03:25:36.549Z,10.90
2022-12-23T03:28:11.478Z,10.90
2022-12-23T03:30:43.859Z,10.90
2022-12-23T03:33:16.914Z,11.00
2022-12-23T03:35:52.584Z,11.00
2022-12-23T03:38:22.339Z,11.00
2022-12-23T03:40:54.920Z,11.00
2022-12-23T03:43:27.604Z,11.10
2022-12-23T03:45:59.787Z,11.00
2022-12-23T03:48:33.044Z,11.10
2022-12-23T03:51:09.084Z,11.10
2022-12-23T03:53:42.730Z,11.10
2022-12-23T03:56:19.321Z,11.10
2022-12-23T03:58:53.301Z,11.10
2022-12-23T04:01:27.694Z,11.10
2022-12-23T04:04:02.554Z,11.10
2022-12-23T04:06:37.142Z,11.10
2022-12-23T04:09:06.723Z,11.10
2022-12-23T04:11:35.648Z,11.10
2022-12-23T04:14:03.670Z,11.10
2022-12-23T04:16:32.390Z,11.00
2022-12-23T04:19:00.673Z,11.00
2022-12-23T04:21:28.484Z,11.10
2022-12-23T04:23:57.813Z,11.10
2022-12-23T04:26:25.551Z,11.10
2022-12-23T04:28:53.479Z,11.10
2022-12-23T04:31:21.273Z,11.10
2022-12-23T04:33:49.202Z,11.10
2022-12-23T04:36:17.164Z,11.10
2022-12-23T04:38:45.394Z,11.10
2022-12-23T04:41:14.926Z,11.10
2022-12-23T04:43:44.392Z,11.20
2022-12-23T04:46:15.742Z,11.20
2022-12-23T04:48:43.673Z,11.20
2022-12-23T04:51:11.354Z,11.20
2022-12-23T04:53:39.454Z,11.20
2022-12-23T04:56:07.417Z,11.20
2022-12-23T04:58:36.804Z,11.20
2022-12-23T05:01:06.814Z,11.30
2022-12-23T05:03:34.972Z,11.30
2022-12-23T05:06:02.955Z,11.30
2022-12-23T05:08:31.171Z,11.30
2022-12-23T05:10:59.136Z,11.30
2022-12-23T05:13:27.287Z,11.30
2022-12-23T05:15:56.932Z,11.30
2022-12-23T05:18:24.864Z,11.30
2022-12-23T05:20:52.784Z,11.30
2022-12-23T05:23:28.389Z,11.30
2022-12-23T05:25:56.177Z,11.30
2022-12-23T05:28:24.557Z,11.20
2022-12-23T05:31:00.559Z,11.20
2022-12-23T05:33:29.103Z,11.20
2022-12-23T05:35:57.776Z,11.20
2022-12-23T05:38:25.776Z,11.20
2022-12-23T05:40:53.726Z,11.30
2022-12-23T05:43:22.158Z,11.30
2022-12-23T05:45:50.619Z,11.30
2022-12-23T05:48:19.999Z,11.30
2022-12-23T05:50:51.122Z,11.30
2022-12-23T05:53:19.752Z,11.20
2022-12-23T05:55:47.876Z,11.30
2022-12-23T05:58:15.845Z,11.20
2022-12-23T06:00:43.914Z,11.20
2022-12-23T06:03:13.063Z,11.20
2022-12-23T06:05:44.306Z,11.30
2022-12-23T06:08:12.418Z,11.30
2022-12-23T06:10:40.429Z,11.30
2022-12-23T06:13:08.880Z,11.30
2022-12-23T06:15:36.661Z,11.30
2022-12-23T06:18:04.739Z,11.30
2022-12-23T06:20:32.601Z,11.30
2022-12-23T06:23:02.040Z,11.30
2022-12-23T06:25:30.012Z,11.30
2022-12-23T06:27:57.902Z,11.30
2022-12-23T06:30:25.799Z,11.30
2022-12-23T06:32:53.550Z,11.30
2022-12-23T06:35:21.560Z,11.30
2022-12-23T06:37:49.354Z,11.30
2022-12-23T06:40:18.847Z,11.30
2022-12-23T06:42:46.706Z,11.30
2022-12-23T06:45:14.578Z,11.30
2022-12-23T06:47:42.320Z,11.30
2022-12-23T06:50:10.849Z,11.30
2022-12-23T06:52:38.616Z,11.40
2022-12-23T06:55:07.113Z,11.40
2022-12-23T06:57:36.572Z,11.40
2022-12-23T07:00:04.914Z,11.40
2022-12-23T07:02:32.949Z,11.40
2022-12-23T07:05:00.969Z,11.40
2022-12-23T07:07:28.841Z,11.40
2022-12-23T07:09:56.689Z,11.40
2022-12-23T07:12:24.759Z,11.40
2022-12-23T07:14:53.981Z,11.40
2022-12-23T07:17:21.833Z,11.40
2022-12-23T07:19:50.197Z,11.40
2022-12-23T07:22:17.964Z,11.40
2022-12-23T07:24:45.953Z,11.40
2022-12-23T07:27:13.830Z,11.40
2022-12-23T07:29:41.608Z,11.40
2022-12-23T07:32:10.866Z,11.40
2022-12-23T07:34:38.708Z,11.40
2022-12-23T07:37:06.579Z,11.50
2022-12-23T07:39:35.073Z,11.50
2022-12-23T07:42:25.467Z,11.50
2022-12-23T07:44:51.188Z,11.60
2022-12-23T07:47:20.465Z,11.60
2022-12-23T07:49:48.271Z,11.60
2022-12-23T07:52:16.238Z,11.60
2022-12-23T07:54:44.143Z,11.60
2022-12-23T07:57:12.810Z,11.60
2022-12-23T07:59:40.561Z,11.70
2022-12-23T08:02:10.579Z,11.70
2022-12-23T08:04:45.868Z,11.70
2022-12-23T08:07:14.518Z,11.80
2022-12-23T08:09:43.195Z,11.80
2022-12-23T08:12:11.053Z,11.80
2022-12-23T08:14:40.065Z,11.80
2022-12-23T08:17:08.537Z,11.80
2022-12-23T08:19:37.105Z,11.80
2022-12-23T08:22:07.950Z,11.80
2022-12-23T08:24:35.949Z,11.80
2022-12-23T08:27:03.832Z,11.80
2022-12-23T08:29:36.374Z,11.90
2022-12-23T08:32:05.232Z,11.80
2022-12-23T08:34:33.205Z,11.80
2022-12-23T08:37:01.661Z,11.80
2022-12-23T08:39:31.159Z,11.80
2022-12-23T08:41:59.340Z,11.80
2022-12-23T08:44:28.315Z,11.80
2022-12-23T08:46:56.760Z,11.90
2022-12-23T08:49:25.119Z,11.90
2022-12-23T08:51:59.432Z,11.90
2022-12-23T08:54:30.205Z,12.00
2022-12-23T08:57:00.612Z,12.00
2022-12-23T08:59:29.602Z,12.00
2022-12-23T09:02:03.122Z,12.00
2022-12-23T09:04:32.559Z,12.00
2022-12-23T09:07:11.808Z,12.00
2022-12-23T09:09:40.052Z,12.00
2022-12-23T09:12:09.314Z,12.10
2022-12-23T09:14:37.382Z,12.10
2022-12-23T09:17:05.264Z,12.10
2022-12-23T09:19:33.441Z,12.20
2022-12-23T09:22:01.307Z,12.10
2022-12-23T09:24:29.259Z,12.20
2022-12-23T09:26:59.562Z,12.20
2022-12-23T09:29:28.953Z,12.20
2022-12-23T09:31:58.491Z,12.20
2022-12-23T09:34:28.821Z,12.20
2022-12-23T09:36:58.654Z,12.20
2022-12-23T09:39:28.496Z,12.30
2022-12-23T09:42:06.762Z,12.40
2022-12-23T09:44:45.962Z,12.40
2022-12-23T09:47:17.770Z,12.50
2022-12-23T09:49:50.173Z,12.50
2022-12-23T09:52:25.175Z,12.60
2022-12-23T09:54:55.274Z,12.60
2022-12-23T09:57:29.314Z,12.60
2022-12-23T10:00:07.242Z,12.70
2022-12-23T10:02:45.995Z,12.70
2022-12-23T10:05:23.337Z,12.70
2022-12-23T10:07:54.103Z,12.80
2022-12-23T10:10:32.392Z,12.80
2022-12-23T10:13:02.650Z,12.90
2022-12-23T10:15:37.555Z,12.90
2022-12-23T10:18:13.391Z,12.90
2022-12-23T10:20:48.682Z,12.90
2022-12-23T10:23:21.929Z,12.90
2022-12-23T10:25:51.981Z,12.90
2022-12-23T10:28:20.200Z,12.90
2022-12-23T10:33:57.952Z,13.00
2022-12-23T10:36:37.993Z,13.00
2022-12-23T10:39:14.264Z,13.10
2022-12-23T10:41:54.083Z,13.10
2022-12-23T10:44:41.427Z,13.10
2022-12-23T10:47:20.023Z,13.20
2022-12-23T10:49:56.409Z,13.20
2022-12-23T10:52:29.234Z,13.30
2022-12-23T10:54:57.107Z,13.30
2022-12-23T10:57:26.157Z,13.40
2022-12-23T10:59:54.045Z,13.30
2022-12-23T11:02:36.079Z,13.30
2022-12-23T11:05:05.925Z,13.40
2022-12-23T11:07:44.656Z,13.30
2022-12-23T11:10:17.993Z,13.40
2022-12-23T11:12:48.317Z,13.40
2022-12-23T11:15:30.160Z,13.40
2022-12-23T11:18:05.792Z,13.40
2022-12-23T11:20:35.531Z,13.40
2022-12-23T11:23:05.354Z,13.40
2022-12-23T11:25:36.651Z,13.40
2022-12-23T11:28:08.199Z,13.40
2022-12-23T11:30:48.952Z,13.50
2022-12-23T11:33:26.728Z,13.50
2022-12-23T11:36:03.594Z,13.50
2022-12-23T11:38:31.703Z,13.50
2022-12-23T11:40:59.994Z,13.60
2022-12-23T11:47:40.001Z,13.60
2022-12-23T11:50:29.852Z,13.70
2022-12-23T11:53:09.701Z,13.60
2022-12-23T11:55:43.888Z,13.60
2022-12-23T11:58:19.959Z,13.50
2022-12-23T12:00:56.116Z,13.50
2022-12-23T12:03:28.834Z,13.50
2022-12-23T12:06:01.438Z,13.50
2022-12-23T12:08:33.535Z,13.50
2022-12-23T12:11:06.675Z,13.50
2022-12-23T12:13:38.958Z,13.50
2022-12-23T12:16:23.040Z,13.40
2022-12-23T12:18:55.695Z,13.40
2022-12-23T12:21:29.946Z,13.40
2022-12-23T12:24:18.277Z,13.40
2022-12-23T12:26:51.603Z,13.40
2022-12-23T12:29:27.532Z,13.40
2022-12-23T12:31:59.503Z,13.40
2022-12-23T12:34:38.188Z,13.40
2022-12-23T12:37:22.811Z,13.50
2022-12-23T12:39:55.035Z,13.50
2022-12-23T12:42:30.587Z,13.50
2022-12-23T12:45:10.703Z,13.50
2022-12-23T12:48:03.614Z,13.50
2022-12-23T12:50:34.282Z,13.50
2022-12-23T12:53:13.343Z,13.50
2022-12-23T12:55:46.731Z,13.50
2022-12-23T12:58:20.172Z,13.50
2022-12-23T13:00:57.732Z,13.50
2022-12-23T13:03:44.998Z,13.50
2022-12-23T13:06:20.936Z,13.50
2022-12-23T13:09:02.542Z,13.50
2022-12-23T13:11:38.692Z,13.50
2022-12-23T13:14:16.531Z,13.50
2022-12-23T13:16:51.043Z,13.60
2022-12-23T13:19:26.719Z,13.60
2022-12-23T13:22:01.827Z,13.70
2022-12-23T13:24:38.308Z,13.70
2022-12-23T13:27:12.523Z,13.70
2022-12-23T13:30:02.604Z,13.70
2022-12-23T13:32:56.916Z,13.60
2022-12-23T13:35:37.699Z,13.60
2022-12-23T13:38:18.904Z,13.60
2022-12-23T13:40:57.991Z,13.60
2022-12-23T13:43:39.659Z,13.60
2022-12-23T13:46:19.422Z,13.60
2022-12-23T13:48:55.371Z,13.60
2022-12-23T13:51:31.365Z,13.50
2022-12-23T13:54:05.481Z,13.50
2022-12-23T13:56:42.828Z,13.50
2022-12-23T13:59:12.430Z,13.50
2022-12-23T14:01:47.080Z,13.50
2022-12-23T14:04:37.665Z,13.50
2022-12-23T14:07:19.618Z,13.50
2022-12-23T14:09:52.604Z,13.50
2022-12-23T14:12:28.369Z,13.40
2022-12-23T14:15:21.697Z,13.40
2022-12-23T14:18:02.729Z,13.50
2022-12-23T14:20:45.369Z,13.50
2022-12-23T14:23:31.957Z,13.50
2022-12-23T14:26:22.004Z,13.40
2022-12-23T14:29:16.226Z,13.40
2022-12-23T14:31:47.430Z,13.40
2022-12-23T14:34:29.804Z,13.40
2022-12-23T14:37:31.140Z,13.40
2022-12-23T14:40:19.740Z,13.40
2022-12-23T14:42:48.341Z,13.40
2022-12-23T14:45:43.825Z,13.40
2022-12-23T14:48:47.136Z,13.40
2022-12-23T14:51:24.268Z,13.40
2022-12-23T14:54:16.269Z,13.40
2022-12-23T14:57:00.819Z,13.30
2022-12-23T14:59:38.910Z,13.40
2022-12-23T15:02:19.313Z,13.40
2022-12-23T15:04:51.238Z,13.40
2022-12-23T15:07:26.208Z,13.30
2022-12-23T15:10:04.259Z,13.30
2022-12-23T15:12:34.713Z,13.30
2022-12-23T15:15:05.998Z,13.30
2022-12-23T15:17:37.065Z,13.30
2022-12-23T15:20:13.572Z,13.30
2022-12-23T15:22:44.534Z,13.30
2022-12-23T15:25:23.026Z,13.30
2022-12-23T15:27:55.999Z,13.30
2022-12-23T15:30:29.603Z,13.30
2022-12-23T15:33:01.963Z,13.30
2022-12-23T15:35:32.657Z,13.30
2022-12-23T15:38:02.235Z,13.20
2022-12-23T15:40:33.581Z,13.20
2022-12-23T15:43:03.198Z,13.20
2022-12-23T15:45:35.410Z,13.30
2022-12-23T15:48:06.947Z,13.30
2022-12-23T15:50:42.062Z,13.30
2022-12-23T15:53:13.541Z,13.30
2022-12-23T15:55:41.923Z,13.30
2022-12-23T15:58:18.784Z,13.30
2022-12-23T16:00:54.231Z,13.30
2022-12-23T16:03:30.009Z,13.30
2022-12-23T16:06:09.412Z,13.30
2022-12-23T16:08:38.728Z,13.30
2022-12-23T16:11:14.864Z,13.30
2022-12-23T16:13:58.094Z,13.30
2022-12-23T16:16:44.924Z,13.30
2022-12-23T16:19:39.099Z,13.20
2022-12-23T16:22:19.401Z,13.20
2022-12-23T16:24:50.808Z,13.30
2022-12-23T16:27:27.197Z,13.30
2022-12-23T16:29:56.359Z,13.20
2022-12-23T16:32:24.325Z,13.20
2022-12-23T16:34:53.961Z,13.30
2022-12-23T16:37:22.120Z,13.20
2022-12-23T16:39:50.299Z,13.30
2022-12-23T16:42:19.818Z,13.20
2022-12-23T16:44:47.860Z,13.20
2022-12-23T16:47:18.129Z,13.20
2022-12-23T16:49:46.317Z,13.30
2022-12-23T16:52:16.535Z,13.20
2022-12-23T16:54:44.518Z,13.20
2022-12-23T16:57:12.485Z,13.20
2022-12-23T16:59:41.419Z,13.20
2022-12-23T17:02:19.697Z,13.30
2022-12-23T17:04:48.137Z,13.20
2022-12-23T17:07:17.626Z,13.30
2022-12-23T17:09:45.749Z,13.30
2022-12-23T17:12:13.651Z,13.20
2022-12-23T17:14:41.770Z,13.30
2022-12-23T17:17:14.770Z,13.20
2022-12-23T17:19:42.932Z,13.20
2022-12-23T17:22:13.483Z,13.20
2022-12-23T17:24:43.113Z,13.20
2022-12-23T17:27:14.023Z,13.20
2022-12-23T17:30:00.628Z,13.30
2022-12-23T17:32:28.860Z,13.20
2022-12-23T17:34:57.087Z,13.20
2022-12-23T17:37:25.376Z,13.30
2022-12-23T17:39:54.838Z,13.30
2022-12-23T17:42:25.891Z,13.20
2022-12-23T17:44:54.600Z,13.20
2022-12-23T17:47:23.285Z,13.20
2022-12-23T17:49:51.699Z,13.20
2022-12-23T17:52:22.151Z,13.20
2022-12-23T17:54:51.899Z,13.20
2022-12-23T17:57:23.956Z,13.20
2022-12-23T17:59:53.805Z,13.20
2022-12-23T18:02:27.213Z,13.20
2022-12-23T18:04:55.300Z,13.20
2022-12-23T18:07:23.378Z,13.20
2022-12-23T18:09:52.066Z,13.20
2022-12-23T18:12:27.803Z,13.30
2022-12-23T18:14:56.731Z,13.30
2022-12-23T18:17:24.812Z,13.30
2022-12-23T18:19:53.224Z,13.30
2022-12-23T18:22:23.471Z,13.20
2022-12-23T18:24:57.027Z,13.20
2022-12-23T18:27:28.541Z,13.20
2022-12-23T18:29:56.513Z,13.20
2022-12-23T18:32:27.747Z,13.20
2022-12-23T18:34:55.952Z,13.20
2022-12-23T18:37:25.253Z,13.20
2022-12-23T18:39:53.237Z,13.30
2022-12-23T18:42:21.410Z,13.30
2022-12-23T18:44:51.035Z,13.30
2022-12-23T18:47:19.044Z,13.30
2022-12-23T18:49:47.048Z,13.30
2022-12-23T18:52:15.063Z,13.30
2022-12-23T18:54:44.099Z,13.20
2022-12-23T18:57:12.037Z,13.20
2022-12-23T18:59:40.351Z,13.30
2022-12-23T19:02:14.783Z,13.30
2022-12-23T19:04:43.310Z,13.30
2022-12-23T19:07:12.239Z,13.30
2022-12-23T19:09:40.580Z,13.30
2022-12-23T19:12:08.743Z,13.30
2022-12-23T19:14:38.619Z,13.30
2022-12-23T19:17:08.483Z,13.30
2022-12-23T19:19:36.678Z,13.30
2022-12-23T19:22:04.750Z,13.30
2022-12-23T19:24:32.868Z,13.30
2022-12-23T19:27:00.919Z,13.30
2022-12-23T19:29:29.137Z,13.30
2022-12-23T19:31:57.400Z,13.30
2022-12-23T19:34:27.061Z,13.30
2022-12-23T19:36:55.260Z,13.30
2022-12-23T19:39:24.437Z,13.30
2022-12-23T19:41:53.152Z,13.30
2022-12-23T19:44:22.280Z,13.30
2022-12-23T19:46:50.777Z,13.30
2022-12-23T19:49:20.331Z,13.30
2022-12-23T19:51:50.639Z,13.30
2022-12-23T19:54:19.543Z,13.40
2022-12-23T19:56:51.304Z,13.40
2022-12-23T19:59:19.722Z,13.40
2022-12-23T20:01:47.937Z,13.30
2022-12-23T20:04:16.832Z,13.30
2022-12-23T20:06:45.186Z,13.30
2022-12-23T20:09:15.097Z,13.30
2022-12-23T20:11:44.891Z,13.30
2022-12-23T20:14:14.657Z,13.30
2022-12-23T20:16:43.573Z,13.30
2022-12-23T20:19:11.809Z,13.30
2022-12-23T20:21:40.106Z,13.30
2022-12-23T20:24:09.828Z,13.30
2022-12-23T20:26:39.514Z,13.30
2022-12-23T20:29:08.105Z,13.30
2022-12-23T20:31:38.143Z,13.30
2022-12-23T20:34:07.635Z,13.30
2022-12-23T20:36:36.799Z,13.30
2022-12-23T20:39:06.082Z,13.30
2022-12-23T20:41:34.388Z,13.30
2022-12-23T20:46:52.654Z,13.30
2022-12-23T20:49:21.198Z,13.30
2022-12-23T20:51:49.402Z,13.30
2022-12-23T20:54:17.341Z,13.30
2022-12-23T20:56:45.440Z,13.30
2022-12-23T20:59:14.861Z,13.20
2022-12-23T21:01:43.140Z,13.30
2022-12-23T21:04:13.188Z,13.30
2022-12-23T21:06:41.521Z,13.30
2022-12-23T21:09:12.050Z,13.30
2022-12-23T21:11:43.280Z,13.30
2022-12-23T21:14:14.396Z,13.30
2022-12-23T21:16:43.190Z,13.30
2022-12-23T21:19:17.956Z,13.30
2022-12-23T21:21:46.845Z,13.30
2022-12-23T21:24:15.554Z,13.30
2022-12-23T21:26:44.029Z,13.30
2022-12-23T21:29:15.320Z,13.30
2022-12-23T21:31:43.525Z,13.30
2022-12-23T21:34:15.408Z,13.30
2022-12-23T21:36:43.850Z,13.30
2022-12-23T21:39:14.815Z,13.30
2022-12-23T21:41:43.463Z,13.30
2022-12-23T21:44:15.479Z,13.30
2022-12-23T21:46:43.686Z,13.40
2022-12-23T21:49:12.149Z,13.30
2022-12-23T21:51:41.737Z,13.30
2022-12-23T21:54:10.760Z,13.30
2022-12-23T21:56:40.195Z,13.30
2022-12-23T21:59:11.551Z,13.30
2022-12-23T22:01:42.325Z,13.30
2022-12-23T22:04:11.174Z,13.30
2022-12-23T22:06:43.838Z,13.30
2022-12-23T22:09:13.605Z,13.30
2022-12-23T22:11:41.703Z,13.30
2022-12-23T22:14:12.614Z,13.30
2022-12-23T22:16:42.251Z,13.30
2022-12-23T22:19:11.517Z,13.30
2022-12-23T22:21:40.066Z,13.30
2022-12-23T22:24:08.726Z,13.30
2022-12-23T22:26:36.915Z,13.30
2022-12-23T22:29:06.630Z,13.30
2022-12-23T22:31:38.559Z,13.30
2022-12-23T22:34:11.215Z,13.30
2022-12-23T22:36:39.396Z,13.30
2022-12-23T22:39:08.125Z,13.30
2022-12-23T22:41:36.271Z,13.30
2022-12-23T22:44:04.385Z,13.30
2022-12-23T22:46:32.483Z,13.30
2022-12-23T22:49:00.894Z,13.30
2022-12-23T22:51:31.894Z,13.30
2022-12-23T22:54:01.851Z,13.30
2022-12-23T22:56:30.242Z,13.30
2022-12-23T22:58:58.908Z,13.30
2022-12-23T23:01:29.389Z,13.30
2022-12-23T23:04:00.544Z,13.30
2022-12-23T23:06:33.090Z,13.30
2022-12-23T23:09:01.741Z,13.30
2022-12-23T23:11:29.877Z,13.30
2022-12-23T23:13:58.075Z,13.30
2022-12-23T23:16:26.546Z,13.30
2022-12-23T23:18:55.093Z,13.30
2022-12-23T23:21:23.256Z,13.30
2022-12-23T23:23:53.154Z,13.30
2022-12-23T23:26:21.957Z,13.30
2022-12-23T23:28:50.275Z,13.30
2022-12-23T23:34:06.940Z,13.30
2022-12-23T23:36:35.182Z,13.30
2022-12-23T23:39:04.748Z,13.30
2022-12-23T23:41:32.551Z,13.30
2022-12-23T23:44:00.662Z,13.30
2022-12-23T23:46:29.257Z,13.30
2022-12-23T23:48:57.236Z,13.30
2022-12-23T23:51:25.301Z,13.30
2022-12-23T23:53:53.261Z,13.30
2022-12-23T23:56:25.967Z,13.30
2022-12-23T23:58:55.222Z,13.30
